sensor_id;sensor_type;location;lat;lon;timestamp;temperature;humidity
23562;DHT22;11959;49.418;8.728;2023-03-14T00:01:53;10.40;99.90
23562;DHT22;11959;49.418;8.728;2023-03-14T00:04:20;10.50;99.90
23562;DHT22;11959;49.418;8.728;2023-03-14T00:06:45;10.50;99.90
23562;DHT22;11959;49.418;8.728;2023-03-14T00:09:13;10.50;99.90
23562;DHT22;11959;49.418;8.728;2023-03-14T00:11:38;10.60;99.90
23562;DHT22;11959;49.418;8.728;2023-03-14T00:14:04;10.50;99.90
23562;DHT22;11959;49.418;8.728;2023-03-14T00:16:29;10.60;99.90
23562;DHT22;11959;49.418;8.728;2023-03-14T00:18:55;10.60;99.90
23562;DHT22;11959;49.418;8.728;2023-03-14T00:21:21;10.60;99.90
23562;DHT22;11959;49.418;8.728;2023-03-14T00:23:46;10.70;99.90
23562;DHT22;11959;49.418;8.728;2023-03-14T00:26:15;10.70;99.90
23562;DHT22;11959;49.418;8.728;2023-03-14T00:28:41;10.70;99.90
23562;DHT22;11959;49.418;8.728;2023-03-14T00:31:09;10.80;99.90
23562;DHT22;11959;49.418;8.728;2023-03-14T00:33:36;10.80;99.90
23562;DHT22;11959;49.418;8.728;2023-03-14T00:36:08;10.80;99.90
23562;DHT22;11959;49.418;8.728;2023-03-14T00:38:34;10.80;99.90
23562;DHT22;11959;49.418;8.728;2023-03-14T00:41:05;10.80;99.90
23562;DHT22;11959;49.418;8.728;2023-03-14T00:43:31;10.90;99.90
23562;DHT22;11959;49.418;8.728;2023-03-14T00:45:56;10.80;99.90
23562;DHT22;11959;49.418;8.728;2023-03-14T00:48:22;10.90;99.90
23562;DHT22;11959;49.418;8.728;2023-03-14T00:50:48;10.90;99.90
23562;DHT22;11959;49.418;8.728;2023-03-14T00:53:14;10.90;99.90
23562;DHT22;11959;49.418;8.728;2023-03-14T00:55:41;10.90;99.90
23562;DHT22;11959;49.418;8.728;2023-03-14T00:58:08;11.00;99.90
23562;DHT22;11959;49.418;8.728;2023-03-14T01:00:34;10.90;99.90
23562;DHT22;11959;49.418;8.728;2023-03-14T01:03:00;10.90;99.90
23562;DHT22;11959;49.418;8.728;2023-03-14T01:05:26;10.90;99.90
23562;DHT22;11959;49.418;8.728;2023-03-14T01:07:52;10.90;99.90
23562;DHT22;11959;49.418;8.728;2023-03-14T01:10:18;10.90;99.90
23562;DHT22;11959;49.418;8.728;2023-03-14T01:12:43;10.90;99.90
23562;DHT22;11959;49.418;8.728;2023-03-14T01:15:09;10.90;99.90
23562;DHT22;11959;49.418;8.728;2023-03-14T01:17:35;11.00;99.90
23562;DHT22;11959;49.418;8.728;2023-03-14T01:20:03;10.90;99.90
23562;DHT22;11959;49.418;8.728;2023-03-14T01:22:30;10.90;99.90
23562;DHT22;11959;49.418;8.728;2023-03-14T01:24:56;11.00;99.90
23562;DHT22;11959;49.418;8.728;2023-03-14T01:27:21;11.10;99.90
23562;DHT22;11959;49.418;8.728;2023-03-14T01:29:47;11.10;99.90
23562;DHT22;11959;49.418;8.728;2023-03-14T01:32:13;11.10;99.90
23562;DHT22;11959;49.418;8.728;2023-03-14T01:34:39;11.10;99.90
23562;DHT22;11959;49.418;8.728;2023-03-14T01:37:04;11.20;99.90
23562;DHT22;11959;49.418;8.728;2023-03-14T01:39:31;11.20;99.90
23562;DHT22;11959;49.418;8.728;2023-03-14T01:41:57;11.20;99.90
23562;DHT22;11959;49.418;8.728;2023-03-14T01:44:23;11.20;99.90
23562;DHT22;11959;49.418;8.728;2023-03-14T01:46:48;11.10;99.90
23562;DHT22;11959;49.418;8.728;2023-03-14T01:49:19;11.20;99.90
23562;DHT22;11959;49.418;8.728;2023-03-14T01:51:59;11.10;99.90
23562;DHT22;11959;49.418;8.728;2023-03-14T01:57:15;11.00;99.90
23562;DHT22;11959;49.418;8.728;2023-03-14T01:59:47;11.10;99.90
23562;DHT22;11959;49.418;8.728;2023-03-14T02:02:15;11.10;99.90
23562;DHT22;11959;49.418;8.728;2023-03-14T02:04:41;11.00;99.90
23562;DHT22;11959;49.418;8.728;2023-03-14T02:07:23;11.10;99.90
23562;DHT22;11959;49.418;8.728;2023-03-14T02:09:50;11.10;99.90
23562;DHT22;11959;49.418;8.728;2023-03-14T02:12:18;11.10;99.90
23562;DHT22;11959;49.418;8.728;2023-03-14T02:14:45;11.10;99.90
23562;DHT22;11959;49.418;8.728;2023-03-14T02:17:14;11.10;99.90
23562;DHT22;11959;49.418;8.728;2023-03-14T02:22:10;11.10;99.90
23562;DHT22;11959;49.418;8.728;2023-03-14T02:27:41;11.10;99.90
23562;DHT22;11959;49.418;8.728;2023-03-14T02:30:08;11.20;99.90
23562;DHT22;11959;49.418;8.728;2023-03-14T02:32:37;11.20;99.90
23562;DHT22;11959;49.418;8.728;2023-03-14T02:35:08;11.20;99.90
23562;DHT22;11959;49.418;8.728;2023-03-14T02:40:12;11.20;99.90
23562;DHT22;11959;49.418;8.728;2023-03-14T02:42:38;11.20;99.90
23562;DHT22;11959;49.418;8.728;2023-03-14T02:47:39;11.10;99.90
23562;DHT22;11959;49.418;8.728;2023-03-14T02:50:12;11.10;99.90
23562;DHT22;11959;49.418;8.728;2023-03-14T02:52:38;11.10;99.90
23562;DHT22;11959;49.418;8.728;2023-03-14T02:55:04;11.10;99.90
23562;DHT22;11959;49.418;8.728;2023-03-14T02:57:30;11.10;99.90
23562;DHT22;11959;49.418;8.728;2023-03-14T03:00:00;11.10;99.90
23562;DHT22;11959;49.418;8.728;2023-03-14T03:02:26;11.20;99.90
23562;DHT22;11959;49.418;8.728;2023-03-14T03:04:52;11.10;99.90
23562;DHT22;11959;49.418;8.728;2023-03-14T03:07:17;11.10;99.90
23562;DHT22;11959;49.418;8.728;2023-03-14T03:09:44;11.10;99.90
23562;DHT22;11959;49.418;8.728;2023-03-14T03:12:10;11.10;99.90
23562;DHT22;11959;49.418;8.728;2023-03-14T03:14:35;11.10;99.90
23562;DHT22;11959;49.418;8.728;2023-03-14T03:17:03;11.10;99.90
23562;DHT22;11959;49.418;8.728;2023-03-14T03:19:29;11.20;99.90
23562;DHT22;11959;49.418;8.728;2023-03-14T03:21:55;11.20;99.90
23562;DHT22;11959;49.418;8.728;2023-03-14T03:24:20;11.10;99.90
23562;DHT22;11959;49.418;8.728;2023-03-14T03:26:46;11.20;99.90
23562;DHT22;11959;49.418;8.728;2023-03-14T03:29:12;11.20;99.90
23562;DHT22;11959;49.418;8.728;2023-03-14T03:31:38;11.20;99.90
23562;DHT22;11959;49.418;8.728;2023-03-14T03:34:04;11.20;99.90
23562;DHT22;11959;49.418;8.728;2023-03-14T03:36:30;11.30;99.90
23562;DHT22;11959;49.418;8.728;2023-03-14T03:38:55;11.20;99.90
23562;DHT22;11959;49.418;8.728;2023-03-14T03:41:21;11.20;99.90
23562;DHT22;11959;49.418;8.728;2023-03-14T03:43:46;11.20;99.90
23562;DHT22;11959;49.418;8.728;2023-03-14T03:46:12;11.10;99.90
23562;DHT22;11959;49.418;8.728;2023-03-14T03:48:38;11.10;99.90
23562;DHT22;11959;49.418;8.728;2023-03-14T03:51:04;11.00;99.90
23562;DHT22;11959;49.418;8.728;2023-03-14T03:53:29;10.90;99.90
23562;DHT22;11959;49.418;8.728;2023-03-14T03:55:55;10.90;99.90
23562;DHT22;11959;49.418;8.728;2023-03-14T03:58:21;10.90;99.90
23562;DHT22;11959;49.418;8.728;2023-03-14T04:00:46;10.90;99.90
23562;DHT22;11959;49.418;8.728;2023-03-14T04:03:12;10.90;99.90
23562;DHT22;11959;49.418;8.728;2023-03-14T04:05:37;10.90;99.90
23562;DHT22;11959;49.418;8.728;2023-03-14T04:08:04;10.90;99.90
23562;DHT22;11959;49.418;8.728;2023-03-14T04:10:30;10.80;99.90
23562;DHT22;11959;49.418;8.728;2023-03-14T04:12:55;10.80;99.90
23562;DHT22;11959;49.418;8.728;2023-03-14T04:15:21;10.80;99.90
23562;DHT22;11959;49.418;8.728;2023-03-14T04:17:46;10.80;99.90
23562;DHT22;11959;49.418;8.728;2023-03-14T04:20:12;10.80;99.90
23562;DHT22;11959;49.418;8.728;2023-03-14T04:22:39;10.80;99.90
23562;DHT22;11959;49.418;8.728;2023-03-14T04:25:05;10.90;99.90
23562;DHT22;11959;49.418;8.728;2023-03-14T04:27:31;10.90;99.90
23562;DHT22;11959;49.418;8.728;2023-03-14T04:29:57;10.90;99.90
23562;DHT22;11959;49.418;8.728;2023-03-14T04:32:22;10.90;99.90
23562;DHT22;11959;49.418;8.728;2023-03-14T04:34:48;10.90;99.90
23562;DHT22;11959;49.418;8.728;2023-03-14T04:37:14;10.90;99.90
23562;DHT22;11959;49.418;8.728;2023-03-14T04:39:40;10.90;99.90
23562;DHT22;11959;49.418;8.728;2023-03-14T04:42:05;10.90;99.90
23562;DHT22;11959;49.418;8.728;2023-03-14T04:44:31;10.90;99.90
23562;DHT22;11959;49.418;8.728;2023-03-14T04:46:57;11.00;99.90
23562;DHT22;11959;49.418;8.728;2023-03-14T04:49:23;10.90;99.90
23562;DHT22;11959;49.418;8.728;2023-03-14T04:51:48;11.00;99.90
23562;DHT22;11959;49.418;8.728;2023-03-14T04:54:16;11.00;99.90
23562;DHT22;11959;49.418;8.728;2023-03-14T04:56:42;11.00;99.90
23562;DHT22;11959;49.418;8.728;2023-03-14T04:59:08;10.90;99.90
23562;DHT22;11959;49.418;8.728;2023-03-14T05:01:34;10.90;99.90
23562;DHT22;11959;49.418;8.728;2023-03-14T05:03:59;10.90;99.90
23562;DHT22;11959;49.418;8.728;2023-03-14T05:06:25;10.90;99.90
23562;DHT22;11959;49.418;8.728;2023-03-14T05:08:51;10.90;99.90
23562;DHT22;11959;49.418;8.728;2023-03-14T05:11:17;10.90;99.90
23562;DHT22;11959;49.418;8.728;2023-03-14T05:13:43;10.90;99.90
23562;DHT22;11959;49.418;8.728;2023-03-14T05:16:10;10.80;99.90
23562;DHT22;11959;49.418;8.728;2023-03-14T05:18:36;10.80;99.90
23562;DHT22;11959;49.418;8.728;2023-03-14T05:21:02;10.80;99.90
23562;DHT22;11959;49.418;8.728;2023-03-14T05:23:28;10.80;99.90
23562;DHT22;11959;49.418;8.728;2023-03-14T05:25:54;10.90;99.90
23562;DHT22;11959;49.418;8.728;2023-03-14T05:28:20;10.90;99.90
23562;DHT22;11959;49.418;8.728;2023-03-14T05:30:46;10.90;99.90
23562;DHT22;11959;49.418;8.728;2023-03-14T05:33:11;10.90;99.90
23562;DHT22;11959;49.418;8.728;2023-03-14T05:35:37;10.90;99.90
23562;DHT22;11959;49.418;8.728;2023-03-14T05:38:03;11.00;99.90
23562;DHT22;11959;49.418;8.728;2023-03-14T05:40:28;10.90;99.90
23562;DHT22;11959;49.418;8.728;2023-03-14T05:42:54;10.90;99.90
23562;DHT22;11959;49.418;8.728;2023-03-14T05:45:20;10.90;99.90
23562;DHT22;11959;49.418;8.728;2023-03-14T05:47:45;11.00;99.90
23562;DHT22;11959;49.418;8.728;2023-03-14T05:50:11;10.90;99.90
23562;DHT22;11959;49.418;8.728;2023-03-14T05:52:37;10.90;99.90
23562;DHT22;11959;49.418;8.728;2023-03-14T05:55:04;10.90;99.90
23562;DHT22;11959;49.418;8.728;2023-03-14T05:57:29;10.90;99.90
23562;DHT22;11959;49.418;8.728;2023-03-14T05:59:55;10.90;99.90
23562;DHT22;11959;49.418;8.728;2023-03-14T06:02:21;10.80;99.90
23562;DHT22;11959;49.418;8.728;2023-03-14T06:04:46;10.90;99.90
23562;DHT22;11959;49.418;8.728;2023-03-14T06:07:12;10.90;99.90
23562;DHT22;11959;49.418;8.728;2023-03-14T06:09:38;10.90;99.90
23562;DHT22;11959;49.418;8.728;2023-03-14T06:12:05;10.90;99.90
23562;DHT22;11959;49.418;8.728;2023-03-14T06:14:31;10.90;99.90
23562;DHT22;11959;49.418;8.728;2023-03-14T06:16:56;10.90;99.90
23562;DHT22;11959;49.418;8.728;2023-03-14T06:19:24;10.90;99.90
23562;DHT22;11959;49.418;8.728;2023-03-14T06:21:50;11.00;99.90
23562;DHT22;11959;49.418;8.728;2023-03-14T06:24:16;10.90;99.90
23562;DHT22;11959;49.418;8.728;2023-03-14T06:26:42;11.00;99.90
23562;DHT22;11959;49.418;8.728;2023-03-14T06:29:08;11.00;99.90
23562;DHT22;11959;49.418;8.728;2023-03-14T06:31:34;11.00;99.90
23562;DHT22;11959;49.418;8.728;2023-03-14T06:33:59;11.10;99.90
23562;DHT22;11959;49.418;8.728;2023-03-14T06:36:25;11.10;99.90
23562;DHT22;11959;49.418;8.728;2023-03-14T06:38:51;11.10;99.90
23562;DHT22;11959;49.418;8.728;2023-03-14T06:41:16;11.10;99.90
23562;DHT22;11959;49.418;8.728;2023-03-14T06:43:43;11.10;99.90
23562;DHT22;11959;49.418;8.728;2023-03-14T06:46:09;11.10;99.90
23562;DHT22;11959;49.418;8.728;2023-03-14T06:48:35;11.10;99.90
23562;DHT22;11959;49.418;8.728;2023-03-14T06:51:00;11.10;99.90
23562;DHT22;11959;49.418;8.728;2023-03-14T06:53:26;11.20;99.90
23562;DHT22;11959;49.418;8.728;2023-03-14T06:55:52;11.10;99.90
23562;DHT22;11959;49.418;8.728;2023-03-14T06:58:17;11.10;99.90
23562;DHT22;11959;49.418;8.728;2023-03-14T07:00:43;11.10;99.90
23562;DHT22;11959;49.418;8.728;2023-03-14T07:03:10;11.10;99.90
23562;DHT22;11959;49.418;8.728;2023-03-14T07:05:35;11.20;99.90
23562;DHT22;11959;49.418;8.728;2023-03-14T07:08:01;11.20;99.90
23562;DHT22;11959;49.418;8.728;2023-03-14T07:10:27;11.20;99.90
23562;DHT22;11959;49.418;8.728;2023-03-14T07:12:53;11.20;99.90
23562;DHT22;11959;49.418;8.728;2023-03-14T07:15:19;11.10;99.90
23562;DHT22;11959;49.418;8.728;2023-03-14T07:17:45;11.10;99.90
23562;DHT22;11959;49.418;8.728;2023-03-14T07:20:13;11.20;99.90
23562;DHT22;11959;49.418;8.728;2023-03-14T07:22:39;11.10;99.90
23562;DHT22;11959;49.418;8.728;2023-03-14T07:25:05;11.20;99.90
23562;DHT22;11959;49.418;8.728;2023-03-14T07:27:31;11.10;99.90
23562;DHT22;11959;49.418;8.728;2023-03-14T07:29:56;11.20;99.90
23562;DHT22;11959;49.418;8.728;2023-03-14T07:32:22;11.10;99.90
23562;DHT22;11959;49.418;8.728;2023-03-14T07:34:48;11.10;99.90
23562;DHT22;11959;49.418;8.728;2023-03-14T07:37:14;11.10;99.90
23562;DHT22;11959;49.418;8.728;2023-03-14T07:39:39;11.20;99.90
23562;DHT22;11959;49.418;8.728;2023-03-14T07:42:05;11.20;99.90
23562;DHT22;11959;49.418;8.728;2023-03-14T07:44:32;11.10;99.90
23562;DHT22;11959;49.418;8.728;2023-03-14T07:46:57;11.10;99.90
23562;DHT22;11959;49.418;8.728;2023-03-14T07:49:23;11.10;99.90
23562;DHT22;11959;49.418;8.728;2023-03-14T07:51:49;11.10;99.90
23562;DHT22;11959;49.418;8.728;2023-03-14T07:54:15;11.10;99.90
23562;DHT22;11959;49.418;8.728;2023-03-14T07:56:40;11.00;99.90
23562;DHT22;11959;49.418;8.728;2023-03-14T07:59:06;11.10;99.90
23562;DHT22;11959;49.418;8.728;2023-03-14T08:01:32;11.10;99.90
23562;DHT22;11959;49.418;8.728;2023-03-14T08:03:58;11.10;99.90
23562;DHT22;11959;49.418;8.728;2023-03-14T08:06:24;11.20;99.90
23562;DHT22;11959;49.418;8.728;2023-03-14T08:08:50;11.20;99.90
23562;DHT22;11959;49.418;8.728;2023-03-14T08:11:16;11.20;99.90
23562;DHT22;11959;49.418;8.728;2023-03-14T08:13:41;11.30;99.90
23562;DHT22;11959;49.418;8.728;2023-03-14T08:16:07;11.30;99.90
23562;DHT22;11959;49.418;8.728;2023-03-14T08:18:33;11.30;99.90
23562;DHT22;11959;49.418;8.728;2023-03-14T08:20:59;11.30;99.90
23562;DHT22;11959;49.418;8.728;2023-03-14T08:23:25;11.30;99.90
23562;DHT22;11959;49.418;8.728;2023-03-14T08:25:51;11.30;99.90
23562;DHT22;11959;49.418;8.728;2023-03-14T08:28:18;11.40;99.90
23562;DHT22;11959;49.418;8.728;2023-03-14T08:30:44;11.40;99.90
23562;DHT22;11959;49.418;8.728;2023-03-14T08:33:09;11.40;99.90
23562;DHT22;11959;49.418;8.728;2023-03-14T08:35:37;11.50;99.90
23562;DHT22;11959;49.418;8.728;2023-03-14T08:38:02;11.60;99.90
23562;DHT22;11959;49.418;8.728;2023-03-14T08:40:28;11.60;99.90
23562;DHT22;11959;49.418;8.728;2023-03-14T08:42:54;11.60;99.90
23562;DHT22;11959;49.418;8.728;2023-03-14T08:45:19;11.70;99.90
23562;DHT22;11959;49.418;8.728;2023-03-14T08:47:45;11.70;99.90
23562;DHT22;11959;49.418;8.728;2023-03-14T08:50:12;11.70;99.90
23562;DHT22;11959;49.418;8.728;2023-03-14T08:52:38;11.70;99.90
23562;DHT22;11959;49.418;8.728;2023-03-14T08:55:06;11.80;99.90
23562;DHT22;11959;49.418;8.728;2023-03-14T08:57:32;11.80;99.90
23562;DHT22;11959;49.418;8.728;2023-03-14T08:59:58;11.90;99.90
23562;DHT22;11959;49.418;8.728;2023-03-14T09:02:25;11.80;99.90
23562;DHT22;11959;49.418;8.728;2023-03-14T09:04:51;11.80;99.90
23562;DHT22;11959;49.418;8.728;2023-03-14T09:07:17;11.90;99.90
23562;DHT22;11959;49.418;8.728;2023-03-14T09:09:43;11.80;99.90
23562;DHT22;11959;49.418;8.728;2023-03-14T09:12:09;11.90;99.90
23562;DHT22;11959;49.418;8.728;2023-03-14T09:14:35;11.90;99.90
23562;DHT22;11959;49.418;8.728;2023-03-14T09:17:00;11.80;99.90
23562;DHT22;11959;49.418;8.728;2023-03-14T09:19:26;11.90;99.90
23562;DHT22;11959;49.418;8.728;2023-03-14T09:21:52;11.90;99.90
23562;DHT22;11959;49.418;8.728;2023-03-14T09:24:18;11.90;99.90
23562;DHT22;11959;49.418;8.728;2023-03-14T09:26:43;11.90;99.90
23562;DHT22;11959;49.418;8.728;2023-03-14T09:29:09;11.90;99.90
23562;DHT22;11959;49.418;8.728;2023-03-14T09:31:35;11.80;99.90
23562;DHT22;11959;49.418;8.728;2023-03-14T09:34:01;11.80;99.90
23562;DHT22;11959;49.418;8.728;2023-03-14T09:36:26;11.80;99.90
23562;DHT22;11959;49.418;8.728;2023-03-14T09:38:52;11.80;99.90
23562;DHT22;11959;49.418;8.728;2023-03-14T09:41:25;11.80;99.90
23562;DHT22;11959;49.418;8.728;2023-03-14T09:44:04;11.80;99.90
23562;DHT22;11959;49.418;8.728;2023-03-14T09:46:32;11.70;99.90
23562;DHT22;11959;49.418;8.728;2023-03-14T09:49:00;11.80;99.90
23562;DHT22;11959;49.418;8.728;2023-03-14T09:51:26;11.70;99.90
23562;DHT22;11959;49.418;8.728;2023-03-14T09:53:52;11.70;99.90
23562;DHT22;11959;49.418;8.728;2023-03-14T09:56:26;11.70;99.90
23562;DHT22;11959;49.418;8.728;2023-03-14T09:58:55;11.70;99.90
23562;DHT22;11959;49.418;8.728;2023-03-14T10:01:29;11.80;99.90
23562;DHT22;11959;49.418;8.728;2023-03-14T10:03:57;11.80;99.90
23562;DHT22;11959;49.418;8.728;2023-03-14T10:06:26;11.80;99.90
23562;DHT22;11959;49.418;8.728;2023-03-14T10:08:54;11.80;99.90
23562;DHT22;11959;49.418;8.728;2023-03-14T10:11:20;11.80;99.90
23562;DHT22;11959;49.418;8.728;2023-03-14T10:14:01;11.80;99.90
23562;DHT22;11959;49.418;8.728;2023-03-14T10:16:36;11.80;99.90
23562;DHT22;11959;49.418;8.728;2023-03-14T10:19:04;11.80;99.90
23562;DHT22;11959;49.418;8.728;2023-03-14T10:21:35;11.80;99.90
23562;DHT22;11959;49.418;8.728;2023-03-14T10:26:58;11.70;99.90
23562;DHT22;11959;49.418;8.728;2023-03-14T10:29:27;11.80;99.90
23562;DHT22;11959;49.418;8.728;2023-03-14T10:31:59;11.80;99.90
23562;DHT22;11959;49.418;8.728;2023-03-14T10:34:29;11.80;99.90
23562;DHT22;11959;49.418;8.728;2023-03-14T10:36:58;11.80;99.90
23562;DHT22;11959;49.418;8.728;2023-03-14T10:42:16;11.80;99.90
23562;DHT22;11959;49.418;8.728;2023-03-14T10:44:44;11.80;99.90
23562;DHT22;11959;49.418;8.728;2023-03-14T10:47:23;11.70;99.90
23562;DHT22;11959;49.418;8.728;2023-03-14T10:49:49;11.70;99.90
23562;DHT22;11959;49.418;8.728;2023-03-14T10:52:25;11.60;99.90
23562;DHT22;11959;49.418;8.728;2023-03-14T10:55:03;11.60;99.90
23562;DHT22;11959;49.418;8.728;2023-03-14T10:57:42;11.60;99.90
23562;DHT22;11959;49.418;8.728;2023-03-14T11:00:22;11.60;99.90
23562;DHT22;11959;49.418;8.728;2023-03-14T11:08:20;11.40;99.90
23562;DHT22;11959;49.418;8.728;2023-03-14T11:10:51;11.40;99.90
23562;DHT22;11959;49.418;8.728;2023-03-14T11:13:29;11.30;99.90
23562;DHT22;11959;49.418;8.728;2023-03-14T11:21:56;11.20;99.90
23562;DHT22;11959;49.418;8.728;2023-03-14T11:24:36;11.30;99.90
23562;DHT22;11959;49.418;8.728;2023-03-14T11:33:08;11.10;99.90
23562;DHT22;11959;49.418;8.728;2023-03-14T11:35:55;11.00;99.90
23562;DHT22;11959;49.418;8.728;2023-03-14T11:41:20;11.00;99.90
23562;DHT22;11959;49.418;8.728;2023-03-14T11:43:48;11.00;99.90
23562;DHT22;11959;49.418;8.728;2023-03-14T11:46:24;11.00;99.90
23562;DHT22;11959;49.418;8.728;2023-03-14T11:51:34;11.00;99.90
23562;DHT22;11959;49.418;8.728;2023-03-14T11:54:31;11.00;99.90
23562;DHT22;11959;49.418;8.728;2023-03-14T11:57:02;11.00;99.90
23562;DHT22;11959;49.418;8.728;2023-03-14T12:10:30;10.90;99.90
23562;DHT22;11959;49.418;8.728;2023-03-14T12:12:57;10.90;99.90
23562;DHT22;11959;49.418;8.728;2023-03-14T12:15:23;10.90;99.90
23562;DHT22;11959;49.418;8.728;2023-03-14T12:17:56;10.90;99.90
23562;DHT22;11959;49.418;8.728;2023-03-14T12:20:23;10.90;99.90
23562;DHT22;11959;49.418;8.728;2023-03-14T12:22:55;10.90;99.90
23562;DHT22;11959;49.418;8.728;2023-03-14T12:25:27;10.90;99.90
23562;DHT22;11959;49.418;8.728;2023-03-14T12:30:34;10.90;99.90
23562;DHT22;11959;49.418;8.728;2023-03-14T12:33:25;10.90;99.90
23562;DHT22;11959;49.418;8.728;2023-03-14T12:35:57;10.80;99.90
23562;DHT22;11959;49.418;8.728;2023-03-14T12:41:19;10.70;99.90
23562;DHT22;11959;49.418;8.728;2023-03-14T12:43:46;10.60;99.90
23562;DHT22;11959;49.418;8.728;2023-03-14T12:46:19;10.60;99.90
23562;DHT22;11959;49.418;8.728;2023-03-14T12:48:56;10.50;99.90
23562;DHT22;11959;49.418;8.728;2023-03-14T12:51:40;10.50;99.90
23562;DHT22;11959;49.418;8.728;2023-03-14T13:00:11;10.30;99.90
23562;DHT22;11959;49.418;8.728;2023-03-14T13:02:42;10.20;99.90
23562;DHT22;11959;49.418;8.728;2023-03-14T13:05:20;10.10;99.90
23562;DHT22;11959;49.418;8.728;2023-03-14T13:10:38;10.00;99.90
23562;DHT22;11959;49.418;8.728;2023-03-14T13:13:24;9.80;99.90
23562;DHT22;11959;49.418;8.728;2023-03-14T13:16:00;9.70;99.90
23562;DHT22;11959;49.418;8.728;2023-03-14T13:19:15;9.60;99.90
23562;DHT22;11959;49.418;8.728;2023-03-14T13:21:42;9.60;99.90
23562;DHT22;11959;49.418;8.728;2023-03-14T13:26:48;9.70;99.90
23562;DHT22;11959;49.418;8.728;2023-03-14T13:29:31;9.70;99.90
23562;DHT22;11959;49.418;8.728;2023-03-14T13:32:02;9.80;99.90
23562;DHT22;11959;49.418;8.728;2023-03-14T13:34:38;9.80;99.90
23562;DHT22;11959;49.418;8.728;2023-03-14T13:37:04;9.90;99.90
23562;DHT22;11959;49.418;8.728;2023-03-14T13:39:29;9.90;99.90
23562;DHT22;11959;49.418;8.728;2023-03-14T13:42:00;10.00;99.90
23562;DHT22;11959;49.418;8.728;2023-03-14T13:46:59;10.10;99.90
23562;DHT22;11959;49.418;8.728;2023-03-14T13:49:27;10.20;99.90
23562;DHT22;11959;49.418;8.728;2023-03-14T13:51:54;10.20;99.90
23562;DHT22;11959;49.418;8.728;2023-03-14T13:54:21;10.30;99.90
23562;DHT22;11959;49.418;8.728;2023-03-14T13:56:47;10.30;99.90
23562;DHT22;11959;49.418;8.728;2023-03-14T13:59:24;10.30;99.90
23562;DHT22;11959;49.418;8.728;2023-03-14T14:01:51;10.30;99.90
23562;DHT22;11959;49.418;8.728;2023-03-14T14:04:25;10.20;99.90
23562;DHT22;11959;49.418;8.728;2023-03-14T14:07:07;10.20;99.90
23562;DHT22;11959;49.418;8.728;2023-03-14T14:09:42;10.20;99.90
23562;DHT22;11959;49.418;8.728;2023-03-14T14:12:29;10.10;99.90
23562;DHT22;11959;49.418;8.728;2023-03-14T14:14:57;10.10;99.90
23562;DHT22;11959;49.418;8.728;2023-03-14T14:17:44;10.10;99.90
23562;DHT22;11959;49.418;8.728;2023-03-14T14:20:28;10.00;99.90
23562;DHT22;11959;49.418;8.728;2023-03-14T14:23:01;9.90;99.90
23562;DHT22;11959;49.418;8.728;2023-03-14T14:25:29;10.00;99.90
23562;DHT22;11959;49.418;8.728;2023-03-14T14:27:55;9.90;99.90
23562;DHT22;11959;49.418;8.728;2023-03-14T14:32:48;10.10;99.90
23562;DHT22;11959;49.418;8.728;2023-03-14T14:35:31;10.10;99.90
23562;DHT22;11959;49.418;8.728;2023-03-14T14:37:57;10.20;99.90
23562;DHT22;11959;49.418;8.728;2023-03-14T14:40:28;10.20;99.90
23562;DHT22;11959;49.418;8.728;2023-03-14T14:42:55;10.30;99.90
23562;DHT22;11959;49.418;8.728;2023-03-14T14:45:27;10.30;99.90
23562;DHT22;11959;49.418;8.728;2023-03-14T14:48:09;10.30;99.90
23562;DHT22;11959;49.418;8.728;2023-03-14T14:51:22;10.30;99.90
23562;DHT22;11959;49.418;8.728;2023-03-14T14:53:30;10.40;99.90
23562;DHT22;11959;49.418;8.728;2023-03-14T14:56:04;10.50;99.90
23562;DHT22;11959;49.418;8.728;2023-03-14T14:58:36;10.50;99.90
23562;DHT22;11959;49.418;8.728;2023-03-14T15:01:15;10.60;99.90
23562;DHT22;11959;49.418;8.728;2023-03-14T15:03:46;10.50;99.90
23562;DHT22;11959;49.418;8.728;2023-03-14T15:06:14;10.50;99.90
23562;DHT22;11959;49.418;8.728;2023-03-14T15:08:41;10.50;99.90
23562;DHT22;11959;49.418;8.728;2023-03-14T15:11:21;10.50;99.90
23562;DHT22;11959;49.418;8.728;2023-03-14T15:13:48;10.40;99.90
23562;DHT22;11959;49.418;8.728;2023-03-14T15:16:17;10.30;99.90
23562;DHT22;11959;49.418;8.728;2023-03-14T15:18:42;10.30;99.90
23562;DHT22;11959;49.418;8.728;2023-03-14T15:21:10;10.20;99.90
23562;DHT22;11959;49.418;8.728;2023-03-14T15:23:36;10.20;99.90
23562;DHT22;11959;49.418;8.728;2023-03-14T15:26:02;10.20;99.90
23562;DHT22;11959;49.418;8.728;2023-03-14T15:28:29;10.20;99.90
23562;DHT22;11959;49.418;8.728;2023-03-14T15:30:56;10.20;99.90
23562;DHT22;11959;49.418;8.728;2023-03-14T15:33:23;10.20;99.90
23562;DHT22;11959;49.418;8.728;2023-03-14T15:35:50;10.20;99.90
23562;DHT22;11959;49.418;8.728;2023-03-14T15:38:18;10.30;99.90
23562;DHT22;11959;49.418;8.728;2023-03-14T15:40:51;10.30;99.90
23562;DHT22;11959;49.418;8.728;2023-03-14T15:43:18;10.40;99.90
23562;DHT22;11959;49.418;8.728;2023-03-14T15:45:43;10.30;99.90
23562;DHT22;11959;49.418;8.728;2023-03-14T15:48:17;10.40;99.90
23562;DHT22;11959;49.418;8.728;2023-03-14T15:50:44;10.40;99.90
23562;DHT22;11959;49.418;8.728;2023-03-14T15:53:10;10.40;99.90
23562;DHT22;11959;49.418;8.728;2023-03-14T15:55:36;10.50;99.90
23562;DHT22;11959;49.418;8.728;2023-03-14T15:58:01;10.60;99.90
23562;DHT22;11959;49.418;8.728;2023-03-14T16:00:28;10.70;99.90
23562;DHT22;11959;49.418;8.728;2023-03-14T16:02:54;10.70;99.90
23562;DHT22;11959;49.418;8.728;2023-03-14T16:05:20;10.70;99.90
23562;DHT22;11959;49.418;8.728;2023-03-14T16:07:46;10.70;99.90
23562;DHT22;11959;49.418;8.728;2023-03-14T16:10:13;10.80;99.90
23562;DHT22;11959;49.418;8.728;2023-03-14T16:12:39;10.70;99.90
23562;DHT22;11959;49.418;8.728;2023-03-14T16:15:06;10.80;99.90
23562;DHT22;11959;49.418;8.728;2023-03-14T16:17:32;10.70;99.90
23562;DHT22;11959;49.418;8.728;2023-03-14T16:19:58;10.70;99.90
23562;DHT22;11959;49.418;8.728;2023-03-14T16:22:23;10.70;99.90
23562;DHT22;11959;49.418;8.728;2023-03-14T16:24:49;10.70;99.90
23562;DHT22;11959;49.418;8.728;2023-03-14T16:27:15;10.60;99.90
23562;DHT22;11959;49.418;8.728;2023-03-14T16:29:41;10.60;99.90
23562;DHT22;11959;49.418;8.728;2023-03-14T16:32:07;10.50;99.90
23562;DHT22;11959;49.418;8.728;2023-03-14T16:34:33;10.50;99.90
23562;DHT22;11959;49.418;8.728;2023-03-14T16:36:59;10.50;99.90
23562;DHT22;11959;49.418;8.728;2023-03-14T16:39:24;10.40;99.90
23562;DHT22;11959;49.418;8.728;2023-03-14T16:41:53;10.40;99.90
23562;DHT22;11959;49.418;8.728;2023-03-14T16:44:18;10.40;99.90
23562;DHT22;11959;49.418;8.728;2023-03-14T16:46:44;10.30;99.90
23562;DHT22;11959;49.418;8.728;2023-03-14T16:49:10;10.20;99.90
23562;DHT22;11959;49.418;8.728;2023-03-14T16:51:35;10.20;99.90
23562;DHT22;11959;49.418;8.728;2023-03-14T16:54:01;10.20;99.90